TimeEST,TemperatureF,Dew PointF,Humidity,Sea Level PressureIn,VisibilityMPH,Wind Direction,Wind SpeedMPH,Gust SpeedMPH,PrecipitationIn,Events,Conditions,WindDirDegrees,DateUTC
12:53 AM,35.1,30.0,82,30.19,10.0,South,9.2,-,N/A,,Clear,170,2013-11-09 05:53:00
1:53 AM,36.0,30.0,79,30.18,10.0,South,9.2,-,N/A,,Clear,170,2013-11-09 06:53:00
2:53 AM,39.0,30.0,70,30.14,10.0,SSE,11.5,-,N/A,,Clear,160,2013-11-09 07:53:00
3:53 AM,39.0,30.0,70,30.12,10.0,South,11.5,-,N/A,,Partly Cloudy,170,2013-11-09 08:53:00
4:53 AM,39.0,30.9,73,30.09,10.0,SSE,12.7,-,N/A,,Mostly Cloudy,160,2013-11-09 09:53:00
5:53 AM,43.0,28.9,58,30.07,10.0,South,15.0,20.7,N/A,,Overcast,190,2013-11-09 10:53:00
6:53 AM,42.1,30.0,62,30.08,10.0,SSW,11.5,-,N/A,,Overcast,200,2013-11-09 11:53:00
7:53 AM,43.0,28.9,58,30.05,10.0,South,21.9,28.8,N/A,,Clear,190,2013-11-09 12:53:00
8:53 AM,45.0,28.9,53,30.03,10.0,SSW,24.2,31.1,N/A,,Clear,200,2013-11-09 13:53:00
9:53 AM,48.9,30.9,50,30.00,10.0,SSW,19.6,27.6,N/A,,Clear,210,2013-11-09 14:53:00
10:53 AM,53.1,33.1,47,29.97,10.0,SW,25.3,33.4,N/A,,Clear,220,2013-11-09 15:53:00
11:53 AM,53.1,35.1,50,29.95,10.0,SW,23.0,35.7,N/A,,Clear,220,2013-11-09 16:53:00
12:53 PM,57.0,37.0,47,29.91,10.0,WSW,23.0,32.2,N/A,,Clear,240,2013-11-09 17:53:00
1:53 PM,57.0,37.0,47,29.90,10.0,SW,25.3,32.2,N/A,,Clear,230,2013-11-09 18:53:00
2:53 PM,57.9,37.9,47,29.89,10.0,WSW,24.2,36.8,N/A,,Clear,240,2013-11-09 19:53:00
3:53 PM,57.9,37.9,47,29.90,10.0,SW,18.4,28.8,N/A,,Partly Cloudy,230,2013-11-09 20:53:00
4:53 PM,57.0,37.9,49,29.91,10.0,WSW,15.0,24.2,N/A,,Scattered Clouds,240,2013-11-09 21:53:00
5:53 PM,55.0,37.9,53,29.92,10.0,SW,11.5,-,N/A,,Mostly Cloudy,230,2013-11-09 22:53:00
6:53 PM,52.0,39.0,61,29.94,10.0,SSW,11.5,-,N/A,,Overcast,210,2013-11-09 23:53:00
7:53 PM,55.0,39.0,55,29.94,10.0,SW,16.1,-,N/A,,Overcast,230,2013-11-10 00:53:00
8:53 PM,52.0,39.0,61,29.95,10.0,WSW,16.1,25.3,N/A,,Clear,250,2013-11-10 01:53:00
9:53 PM,48.9,39.0,69,29.96,10.0,WSW,13.8,-,N/A,,Clear,250,2013-11-10 02:53:00
10:53 PM,48.0,37.9,68,29.96,10.0,WSW,10.4,-,N/A,,Clear,240,2013-11-10 03:53:00
11:53 PM,46.9,37.9,71,29.98,10.0,WSW,16.1,-,N/A,,Clear,250,2013-11-10 04:53:00